createdAt,value
2022-12-04T00:00:28.319Z,24.4
2022-12-04T00:01:44.616Z,23.8
2022-12-04T00:03:00.904Z,23.6
2022-12-04T00:04:17.192Z,24
2022-12-04T00:05:33.488Z,22.8
2022-12-04T00:06:49.791Z,22.4
2022-12-04T00:08:06.086Z,23.7
2022-12-04T00:09:22.376Z,23.6
2022-12-04T00:10:38.663Z,22.4
2022-12-04T00:11:53.974Z,23.9
2022-12-04T00:13:10.278Z,23.6
2022-12-04T00:14:26.572Z,22.9
2022-12-04T00:15:42.857Z,24
2022-12-04T00:16:59.151Z,24.8
2022-12-04T00:18:15.441Z,23
2022-12-04T00:19:31.750Z,24.3
2022-12-04T00:20:48.040Z,22.2
2022-12-04T00:22:04.338Z,23.9
2022-12-04T00:23:20.634Z,22.6
2022-12-04T00:24:36.925Z,23.6
2022-12-04T00:25:53.214Z,22.7
2022-12-04T00:27:09.496Z,23
2022-12-04T00:28:24.811Z,23.1
2022-12-04T00:29:41.103Z,24.3
2022-12-04T00:30:57.414Z,25.8
2022-12-04T00:32:13.688Z,23.2
2022-12-04T00:33:29.984Z,22.9
2022-12-04T00:34:46.277Z,23.8
2022-12-04T00:36:02.570Z,24.5
2022-12-04T00:37:18.881Z,23.6
2022-12-04T00:38:35.158Z,23.4
2022-12-04T00:39:51.451Z,23
2022-12-04T00:41:07.747Z,23.6
2022-12-04T00:42:24.048Z,24
2022-12-04T00:43:40.341Z,24.3
2022-12-04T00:44:55.660Z,23.7
2022-12-04T00:46:11.934Z,27.3
2022-12-04T00:47:28.227Z,22.3
2022-12-04T00:48:44.528Z,24.1
2022-12-04T00:50:00.832Z,23.1
2022-12-04T00:51:17.116Z,23.5
2022-12-04T00:52:33.403Z,22.4
2022-12-04T00:53:49.696Z,22.7
2022-12-04T00:55:05.997Z,23
2022-12-04T00:56:22.289Z,24.2
2022-12-04T00:57:38.586Z,24.8
2022-12-04T00:58:54.886Z,23.9
2022-12-04T01:00:11.167Z,24.2
2022-12-04T01:01:26.480Z,24.1
2022-12-04T01:02:42.774Z,24.3
2022-12-04T01:03:59.071Z,22.3
2022-12-04T01:05:15.370Z,23.3
2022-12-04T01:06:31.666Z,23.8
2022-12-04T01:07:47.946Z,24.4
2022-12-04T01:09:04.248Z,23.6
2022-12-04T01:10:20.541Z,23
2022-12-04T01:11:36.828Z,23.5
2022-12-04T01:12:53.135Z,23.8
2022-12-04T01:14:09.418Z,23.9
2022-12-04T01:15:25.712Z,25.5
2022-12-04T01:16:42.014Z,24
2022-12-04T01:17:57.311Z,25.2
2022-12-04T01:19:13.614Z,24.4
2022-12-04T01:20:29.908Z,23.7
2022-12-04T01:21:46.198Z,23.8
2022-12-04T01:23:02.504Z,25.3
2022-12-04T01:24:18.782Z,25.2
2022-12-04T01:25:35.000Z,23.9
2022-12-04T01:26:51.378Z,23.3
2022-12-04T01:28:07.000Z,23.6
2022-12-04T01:29:23.957Z,23.2
2022-12-04T01:30:40.251Z,23.2
2022-12-04T01:31:56.551Z,23.8
2022-12-04T01:33:12.855Z,25.2
2022-12-04T01:34:28.162Z,24.7
2022-12-04T01:35:44.458Z,24.3
2022-12-04T01:37:00.738Z,23.2
2022-12-04T01:38:17.030Z,24.5
2022-12-04T01:39:33.339Z,24.8
2022-12-04T01:40:49.619Z,24.5
2022-12-04T01:42:05.913Z,24.8
2022-12-04T01:43:22.210Z,24.8
2022-12-04T01:44:38.497Z,24.6
2022-12-04T01:45:54.805Z,24
2022-12-04T01:47:11.092Z,23.6
2022-12-04T01:48:27.378Z,24.3
2022-12-04T01:49:43.678Z,23.5
2022-12-04T01:50:58.983Z,24.4
2022-12-04T01:52:15.282Z,26
2022-12-04T01:53:31.577Z,24.8
2022-12-04T01:54:47.871Z,25.2
2022-12-04T01:56:04.160Z,22.5
2022-12-04T01:57:20.465Z,24.9
2022-12-04T01:58:36.754Z,23.8
2022-12-04T01:59:53.041Z,23.7
2022-12-04T02:01:09.350Z,23.2
2022-12-04T02:02:25.627Z,24.4
2022-12-04T02:03:41.936Z,23
2022-12-04T02:04:58.231Z,26.5
2022-12-04T02:06:14.518Z,24.7
2022-12-04T02:07:29.822Z,25
2022-12-04T02:08:46.111Z,26.3
2022-12-04T02:10:02.410Z,24.3
2022-12-04T02:11:18.707Z,24.9
2022-12-04T02:12:35.004Z,24.9
2022-12-04T02:13:51.307Z,23.6
2022-12-04T02:15:07.593Z,24.2
2022-12-04T02:16:23.887Z,24.2
2022-12-04T02:17:40.168Z,23.3
2022-12-04T02:18:56.467Z,25.4
2022-12-04T02:20:12.764Z,24.1
2022-12-04T02:21:29.054Z,23.6
2022-12-04T02:22:45.352Z,23.9
2022-12-04T02:24:00.662Z,24.3
2022-12-04T02:25:16.956Z,23.8
2022-12-04T02:26:33.258Z,25.1
2022-12-04T02:27:49.552Z,24
2022-12-04T02:29:05.829Z,25.3
2022-12-04T02:30:22.128Z,25.5
2022-12-04T02:31:38.419Z,23.1
2022-12-04T02:32:54.715Z,23.8
2022-12-04T02:34:11.023Z,24.2
2022-12-04T02:35:27.300Z,24.7
2022-12-04T02:36:43.595Z,23.5
2022-12-04T02:37:59.889Z,24.5
2022-12-04T02:39:16.181Z,24.2
2022-12-04T02:40:31.497Z,23.5
2022-12-04T02:41:47.795Z,24.7
2022-12-04T02:43:04.086Z,23.1
2022-12-04T02:44:20.372Z,25.5
2022-12-04T02:45:36.666Z,24.3
2022-12-04T02:46:52.966Z,23.1
2022-12-04T02:48:09.253Z,25
2022-12-04T02:49:25.552Z,25.1
2022-12-04T02:50:41.855Z,25
2022-12-04T02:51:58.149Z,26.1
2022-12-04T02:53:14.434Z,25.4
2022-12-04T02:54:30.727Z,26.1
2022-12-04T02:55:47.021Z,25.6
2022-12-04T02:57:02.330Z,26.8
2022-12-04T02:58:18.637Z,25.7
2022-12-04T02:59:34.916Z,27.1
2022-12-04T03:00:51.212Z,26.1
2022-12-04T03:02:07.505Z,26.2
2022-12-04T03:03:23.795Z,27.9
2022-12-04T03:04:40.103Z,27
2022-12-04T03:05:56.400Z,28.2
2022-12-04T03:07:12.692Z,27.1
2022-12-04T03:08:28.968Z,26.8
2022-12-04T03:09:45.277Z,29.2
2022-12-04T03:11:01.562Z,29.4
2022-12-04T03:12:17.857Z,30
2022-12-04T03:13:33.168Z,30
2022-12-04T03:14:49.455Z,28.6
2022-12-04T03:16:05.748Z,27.6
2022-12-04T03:17:22.044Z,29.8
2022-12-04T03:18:38.352Z,31.3
2022-12-04T03:19:54.653Z,30.3
2022-12-04T03:21:10.938Z,29.5
2022-12-04T03:22:27.229Z,29
2022-12-04T03:23:43.513Z,29.4
2022-12-04T03:24:59.812Z,28
2022-12-04T03:26:16.098Z,31.3
2022-12-04T03:27:32.407Z,28.6
2022-12-04T03:28:48.690Z,28.7
2022-12-04T03:30:04.006Z,29.3
2022-12-04T03:31:20.287Z,29.5
2022-12-04T03:32:36.589Z,29.5
2022-12-04T03:33:52.885Z,29.8
2022-12-04T03:35:09.181Z,31.3
2022-12-04T03:36:25.474Z,30.6
2022-12-04T03:37:41.761Z,29.5
2022-12-04T03:38:58.057Z,30.8
2022-12-04T03:40:14.344Z,30
2022-12-04T03:41:30.642Z,31.2
2022-12-04T03:42:46.948Z,29.5
2022-12-04T03:44:03.230Z,30.4
2022-12-04T03:45:19.539Z,30.1
2022-12-04T03:46:34.836Z,31.4
2022-12-04T03:47:51.128Z,28.6
2022-12-04T03:49:07.421Z,29.9
2022-12-04T03:50:23.712Z,30.4
2022-12-04T03:51:40.020Z,32.8
2022-12-04T03:52:56.299Z,29.7
2022-12-04T03:54:11.620Z,30.6
2022-12-04T03:55:27.919Z,30.2
2022-12-04T03:56:44.211Z,30.3
2022-12-04T03:58:00.503Z,30.3
2022-12-04T03:59:16.801Z,32.6
2022-12-04T04:00:33.094Z,30
2022-12-04T04:01:49.386Z,30.4
2022-12-04T04:03:05.678Z,29.6
2022-12-04T04:04:21.976Z,30.7
2022-12-04T04:05:38.278Z,31
2022-12-04T04:06:54.557Z,30
2022-12-04T04:08:10.857Z,30.7
2022-12-04T04:09:27.157Z,31
2022-12-04T04:10:42.458Z,30.8
2022-12-04T04:11:58.753Z,30.6
2022-12-04T04:13:15.051Z,29.2
2022-12-04T04:14:31.342Z,31.5
2022-12-04T04:15:47.634Z,31.9
2022-12-04T04:17:03.937Z,32
2022-12-04T04:18:20.231Z,31
2022-12-04T04:19:36.514Z,30.7
2022-12-04T04:20:52.812Z,31.2
2022-12-04T04:22:09.119Z,31.9
2022-12-04T04:23:25.403Z,30.3
2022-12-04T04:24:41.000Z,30.8
2022-12-04T04:25:57.986Z,32.9
2022-12-04T04:27:13.300Z,30.4
2022-12-04T04:28:29.584Z,32.5
2022-12-04T04:29:45.877Z,31.4
2022-12-04T04:31:02.179Z,31.1
2022-12-04T04:32:18.465Z,32.1
2022-12-04T04:33:34.772Z,32.2
2022-12-04T04:34:51.053Z,31.3
2022-12-04T04:36:07.350Z,32.4
2022-12-04T04:37:23.652Z,32.2
2022-12-04T04:38:39.944Z,31.9
2022-12-04T04:39:56.229Z,30.9
2022-12-04T04:41:12.529Z,32
2022-12-04T04:42:28.821Z,31.7
2022-12-04T04:43:44.128Z,30.7
2022-12-04T04:45:00.435Z,31.4
2022-12-04T04:46:16.713Z,33.3
2022-12-04T04:47:33.011Z,32.7
2022-12-04T04:48:49.307Z,32.3
2022-12-04T04:50:05.597Z,32.8
2022-12-04T04:51:21.907Z,31.9
2022-12-04T04:52:38.193Z,31.9
2022-12-04T04:53:54.484Z,32.2
2022-12-04T04:55:10.779Z,33
2022-12-04T04:56:27.079Z,33.5
2022-12-04T04:57:43.376Z,31.6
2022-12-04T04:58:59.666Z,31.6
2022-12-04T05:00:14.967Z,32.9
2022-12-04T05:01:31.260Z,31.9
2022-12-04T05:02:47.552Z,30.8
2022-12-04T05:04:03.848Z,33.9
2022-12-04T05:05:20.143Z,33.4
2022-12-04T05:06:36.448Z,33.8
2022-12-04T05:07:52.723Z,32.6
2022-12-04T05:09:09.036Z,33.1
2022-12-04T05:10:25.314Z,33.7
2022-12-04T05:11:41.610Z,33.9
2022-12-04T05:12:57.909Z,33.9
2022-12-04T05:14:14.212Z,33.2
2022-12-04T05:15:30.485Z,33.6
2022-12-04T05:16:45.796Z,33.7
2022-12-04T05:18:02.091Z,34.3
2022-12-04T05:19:18.398Z,34.4
2022-12-04T05:20:34.682Z,34.2
2022-12-04T05:21:50.979Z,35.3
2022-12-04T05:23:07.269Z,35.1
2022-12-04T05:24:23.572Z,33.1
2022-12-04T05:25:39.859Z,34.5
2022-12-04T05:26:56.155Z,35.5
2022-12-04T05:28:12.443Z,32.2
2022-12-04T05:29:28.734Z,33.3
2022-12-04T05:30:45.040Z,35.1
2022-12-04T05:32:01.325Z,35.5
2022-12-04T05:33:16.633Z,34.9
2022-12-04T05:34:32.934Z,35.1
2022-12-04T05:35:49.225Z,33.6
2022-12-04T05:37:05.521Z,34.3
2022-12-04T05:38:21.821Z,33.6
2022-12-04T05:39:38.105Z,34.7
2022-12-04T05:40:54.398Z,34.2
2022-12-04T05:42:10.707Z,35
2022-12-04T05:43:27.002Z,34
2022-12-04T05:44:43.281Z,33.1
2022-12-04T05:45:59.584Z,34.9
2022-12-04T05:47:15.868Z,33.7
2022-12-04T05:48:32.178Z,35
2022-12-04T05:49:47.480Z,33.1
2022-12-04T05:51:03.768Z,34
2022-12-04T05:52:20.055Z,32.6
2022-12-04T05:53:36.354Z,33.6
2022-12-04T05:54:52.662Z,35
2022-12-04T05:56:08.949Z,34.7
2022-12-04T05:57:25.249Z,34.7
2022-12-04T05:58:41.525Z,35.9
2022-12-04T05:59:57.823Z,36.4
2022-12-04T06:01:14.121Z,34.3
2022-12-04T06:02:30.421Z,33.2
2022-12-04T06:03:46.717Z,35.7
2022-12-04T06:05:03.006Z,35.2
2022-12-04T06:06:18.320Z,33.5
2022-12-04T06:07:34.603Z,35.6
2022-12-04T06:08:50.896Z,35
2022-12-04T06:10:07.203Z,34.3
2022-12-04T06:11:23.490Z,35.8
2022-12-04T06:12:39.790Z,35.2
2022-12-04T06:13:56.077Z,36.2
2022-12-04T06:15:12.380Z,34.1
2022-12-04T06:16:28.660Z,37.4
2022-12-04T06:17:44.958Z,36.6
2022-12-04T06:19:01.255Z,34.4
2022-12-04T06:20:17.548Z,35.6
2022-12-04T06:21:33.834Z,38.5
2022-12-04T06:22:49.139Z,37.3
2022-12-04T06:24:05.439Z,35.7
2022-12-04T06:25:21.731Z,35.7
2022-12-04T06:26:38.029Z,37.2
2022-12-04T06:27:54.327Z,38.8
2022-12-04T06:29:10.613Z,41.2
2022-12-04T06:30:26.916Z,43.3
2022-12-04T06:31:43.211Z,40.2
2022-12-04T06:32:59.449Z,36.8
2022-12-04T06:34:15.733Z,35.6
2022-12-04T06:35:31.996Z,35.2
2022-12-04T06:36:48.298Z,35.9
2022-12-04T06:38:04.578Z,35.9
2022-12-04T06:39:19.841Z,36
2022-12-04T06:40:36.098Z,36
2022-12-04T06:41:52.394Z,36.9
2022-12-04T06:43:08.642Z,35.8
2022-12-04T06:44:24.878Z,35.1
2022-12-04T06:45:41.114Z,37
2022-12-04T06:46:57.352Z,35.8
2022-12-04T06:48:13.597Z,36.7
2022-12-04T06:49:29.878Z,35.3
2022-12-04T06:50:46.136Z,37
2022-12-04T06:52:02.372Z,37.7
2022-12-04T06:53:18.616Z,35.9
2022-12-04T06:54:34.869Z,36.5
2022-12-04T06:55:50.105Z,37.9
2022-12-04T06:57:06.353Z,35.6
2022-12-04T06:58:22.591Z,37.3
2022-12-04T06:59:38.831Z,37.9
2022-12-04T07:00:55.069Z,36.4
2022-12-04T07:02:11.310Z,36.7
2022-12-04T07:03:27.547Z,37.7
2022-12-04T07:04:43.788Z,36.2
2022-12-04T07:06:00.038Z,36.2
2022-12-04T07:07:16.265Z,36
2022-12-04T07:08:32.507Z,37.7
2022-12-04T07:09:48.754Z,35
2022-12-04T07:11:04.986Z,36.7
2022-12-04T07:12:20.252Z,36.8
2022-12-04T07:13:36.498Z,35.8
2022-12-04T07:14:52.732Z,37.4
2022-12-04T07:16:08.980Z,38.9
2022-12-04T07:17:25.211Z,37.8
2022-12-04T07:18:41.443Z,38.8
2022-12-04T07:19:57.687Z,39.5
2022-12-04T07:21:13.923Z,37.4
2022-12-04T07:22:30.172Z,37.8
2022-12-04T07:23:46.406Z,38.9
2022-12-04T07:25:02.649Z,35.7
2022-12-04T07:26:18.880Z,38.6
2022-12-04T07:27:35.118Z,38.5
2022-12-04T07:28:50.380Z,37.2
2022-12-04T07:30:06.615Z,43.7
2022-12-04T07:31:22.858Z,37.7
2022-12-04T07:32:39.097Z,36.9
2022-12-04T07:33:55.352Z,50.4
2022-12-04T07:35:11.581Z,51.5
2022-12-04T07:36:27.826Z,43.7
2022-12-04T07:37:44.061Z,41.5
2022-12-04T07:39:00.301Z,56.2
2022-12-04T07:40:16.554Z,53.9
2022-12-04T07:41:32.774Z,42.4
2022-12-04T07:42:49.030Z,39.9
2022-12-04T07:44:05.263Z,39.1
2022-12-04T07:45:20.512Z,37.4
2022-12-04T07:46:36.767Z,39.4
2022-12-04T07:47:53.003Z,40.8
2022-12-04T07:49:09.239Z,41.2
2022-12-04T07:50:25.473Z,41.3
2022-12-04T07:51:41.708Z,41.7
2022-12-04T07:52:57.967Z,40
2022-12-04T07:54:14.204Z,39.4
2022-12-04T07:55:30.430Z,38.7
2022-12-04T07:56:46.672Z,39.4
2022-12-04T07:58:02.908Z,38.6
2022-12-04T07:59:19.153Z,38.5
2022-12-04T08:00:35.399Z,37.9
2022-12-04T08:01:50.659Z,39.3
2022-12-04T08:03:06.884Z,40.5
2022-12-04T08:04:23.123Z,44.2
2022-12-04T08:05:39.368Z,41.6
2022-12-04T08:06:55.616Z,40.3
2022-12-04T08:08:11.851Z,40.9
2022-12-04T08:09:27.109Z,39
2022-12-04T08:10:43.343Z,39.7
2022-12-04T08:11:59.581Z,38.6
2022-12-04T08:13:15.821Z,40.2
2022-12-04T08:14:32.062Z,38.2
2022-12-04T08:15:48.302Z,40.4
2022-12-04T08:17:04.561Z,38.6
2022-12-04T08:18:20.784Z,37.2
2022-12-04T08:19:37.030Z,39.3
2022-12-04T08:20:53.267Z,39.3
2022-12-04T08:22:09.508Z,38.9
2022-12-04T08:23:25.750Z,38.7
2022-12-04T08:24:41.990Z,38.1
2022-12-04T08:25:57.242Z,39.7
2022-12-04T08:27:13.486Z,37.3
2022-12-04T08:28:29.717Z,38
2022-12-04T08:29:45.964Z,38.3
2022-12-04T08:31:02.208Z,38.4
2022-12-04T08:32:18.452Z,39.5
2022-12-04T08:33:34.687Z,37.1
2022-12-04T08:34:50.929Z,39
2022-12-04T08:36:07.155Z,37.5
2022-12-04T08:37:23.414Z,39.4
2022-12-04T08:38:39.648Z,40.8
2022-12-04T08:39:55.895Z,58.1
2022-12-04T08:41:12.129Z,45.4
2022-12-04T08:42:27.379Z,49.6
2022-12-04T08:43:43.615Z,50.6
2022-12-04T08:44:59.860Z,46.4
2022-12-04T08:46:16.090Z,42.7
2022-12-04T08:47:32.337Z,40.8
2022-12-04T08:48:48.575Z,40.7
2022-12-04T08:50:04.816Z,38.9
2022-12-04T08:51:21.058Z,39.2
2022-12-04T08:52:37.304Z,39.4
2022-12-04T08:53:53.534Z,39.1
2022-12-04T08:55:09.780Z,39.3
2022-12-04T08:56:26.018Z,40.7
2022-12-04T08:57:42.255Z,40
2022-12-04T08:58:57.521Z,39.2
2022-12-04T09:00:13.765Z,38.4
2022-12-04T09:01:29.987Z,39.3
2022-12-04T09:02:46.229Z,39.3
2022-12-04T09:04:02.484Z,39.5
2022-12-04T09:05:18.716Z,39.7
2022-12-04T09:06:34.952Z,39.8
2022-12-04T09:07:51.189Z,39.1
2022-12-04T09:09:07.432Z,37.6
2022-12-04T09:10:23.688Z,39.5
2022-12-04T09:11:39.904Z,40
2022-12-04T09:12:56.155Z,38.8
2022-12-04T09:14:12.400Z,40.9
2022-12-04T09:15:27.651Z,40.3
2022-12-04T09:16:43.885Z,38.3
2022-12-04T09:18:00.126Z,40.3
2022-12-04T09:19:16.372Z,40.9
2022-12-04T09:20:32.611Z,39.9
2022-12-04T09:21:48.850Z,43.4
2022-12-04T09:23:05.081Z,41.3
2022-12-04T09:24:21.326Z,41
2022-12-04T09:25:37.565Z,43.3
2022-12-04T09:26:53.816Z,40.6
2022-12-04T09:28:10.061Z,39.9
2022-12-04T09:29:26.296Z,39.2
2022-12-04T09:30:42.524Z,39.6
2022-12-04T09:31:57.786Z,40.9
2022-12-04T09:33:14.036Z,38.3
2022-12-04T09:34:30.271Z,40.8
2022-12-04T09:35:46.502Z,39.7
2022-12-04T09:37:02.746Z,39.9
2022-12-04T09:38:18.987Z,39.9
2022-12-04T09:39:35.227Z,41.2
2022-12-04T09:40:51.474Z,38.6
2022-12-04T09:42:07.711Z,39.4
2022-12-04T09:43:23.949Z,41.4
2022-12-04T09:44:40.185Z,39.2
2022-12-04T09:45:56.434Z,38.6
2022-12-04T09:47:12.675Z,39.9
2022-12-04T09:48:27.914Z,40.3
2022-12-04T09:49:44.153Z,40.9
2022-12-04T09:51:00.404Z,38.5
2022-12-04T09:52:16.646Z,39.9
2022-12-04T09:53:32.873Z,38.8
2022-12-04T09:54:49.122Z,40.8
2022-12-04T09:56:05.349Z,42.5
2022-12-04T09:57:21.596Z,39.8
2022-12-04T09:58:37.832Z,41.9
2022-12-04T09:59:54.082Z,39.7
2022-12-04T10:01:10.314Z,39.1
2022-12-04T10:02:26.567Z,39
2022-12-04T10:03:42.800Z,39
2022-12-04T10:04:58.048Z,38.9
2022-12-04T10:06:14.293Z,39.3
2022-12-04T10:07:30.530Z,40
2022-12-04T10:08:46.783Z,40.9
2022-12-04T10:10:03.011Z,38.6
2022-12-04T10:11:19.247Z,41.7
2022-12-04T10:12:35.483Z,38.3
2022-12-04T10:13:51.739Z,39.7
2022-12-04T10:15:07.977Z,37.7
2022-12-04T10:16:24.220Z,39.4
2022-12-04T10:17:40.449Z,39.2
2022-12-04T10:18:56.695Z,39.2
2022-12-04T10:20:12.932Z,38.4
2022-12-04T10:21:28.198Z,39.5
2022-12-04T10:22:44.438Z,40.5
2022-12-04T10:24:00.669Z,39
2022-12-04T10:25:16.911Z,40.5
2022-12-04T10:26:33.141Z,40.5
2022-12-04T10:27:49.384Z,38.2
2022-12-04T10:29:05.626Z,41.6
2022-12-04T10:30:21.858Z,40.5
2022-12-04T10:31:38.114Z,39
2022-12-04T10:32:54.341Z,37.9
2022-12-04T10:34:10.587Z,38.7
2022-12-04T10:35:26.819Z,40.5
2022-12-04T10:36:43.075Z,39.2
2022-12-04T10:37:58.324Z,42.7
2022-12-04T10:39:14.558Z,39.4
2022-12-04T10:40:30.796Z,41.6
2022-12-04T10:41:47.042Z,39.4
2022-12-04T10:43:03.282Z,42.1
2022-12-04T10:44:19.529Z,44
2022-12-04T10:45:35.756Z,42.3
2022-12-04T10:46:52.006Z,47.6
2022-12-04T10:48:08.241Z,46.3
2022-12-04T10:49:24.488Z,42.1
2022-12-04T10:50:40.724Z,43.9
2022-12-04T10:51:56.959Z,43.2
2022-12-04T10:53:13.197Z,41.7
2022-12-04T10:54:28.448Z,44
2022-12-04T10:55:44.690Z,42.4
2022-12-04T10:57:00.930Z,44.7
2022-12-04T10:58:17.165Z,41.5
2022-12-04T10:59:33.411Z,40.3
2022-12-04T11:00:49.656Z,39
2022-12-04T11:02:05.898Z,40.2
2022-12-04T11:03:22.139Z,39.9
2022-12-04T11:04:38.376Z,40.5
2022-12-04T11:05:54.612Z,40.4
2022-12-04T11:07:10.850Z,42
2022-12-04T11:08:27.084Z,42.6
2022-12-04T11:09:43.333Z,40.2
2022-12-04T11:10:58.585Z,41.6
2022-12-04T11:12:14.831Z,40.8
2022-12-04T11:13:31.067Z,39.3
2022-12-04T11:14:47.000Z,38.4
2022-12-04T11:16:03.542Z,39
2022-12-04T11:17:19.784Z,39.3
2022-12-04T11:18:36.025Z,38.1
2022-12-04T11:19:52.264Z,38.9
2022-12-04T11:21:08.505Z,38.2
2022-12-04T11:22:24.748Z,38
2022-12-04T11:23:40.987Z,39.1
2022-12-04T11:24:57.224Z,38.9
2022-12-04T11:26:13.470Z,38.4
2022-12-04T11:27:28.724Z,38.3
2022-12-04T11:28:44.957Z,38.2
2022-12-04T11:30:01.199Z,38.6
2022-12-04T11:31:17.445Z,36.8
2022-12-04T11:32:33.685Z,37.5
2022-12-04T11:33:49.920Z,37.8
2022-12-04T11:35:06.166Z,37.3
2022-12-04T11:36:22.399Z,37.9
2022-12-04T11:37:38.640Z,44.4
2022-12-04T11:38:54.877Z,39.6
2022-12-04T11:40:11.123Z,39.5
2022-12-04T11:41:27.366Z,40.2
2022-12-04T11:42:43.595Z,47.8
2022-12-04T11:43:58.857Z,49.2
2022-12-04T11:45:15.088Z,38.3
2022-12-04T11:46:31.326Z,37.5
2022-12-04T11:47:47.577Z,36.8
2022-12-04T11:49:03.820Z,38.5
2022-12-04T11:50:20.047Z,37.7
2022-12-04T11:51:36.302Z,36.5
2022-12-04T11:52:52.538Z,38
2022-12-04T11:54:08.772Z,36
2022-12-04T11:55:25.022Z,37.6
2022-12-04T11:56:41.264Z,38.1
2022-12-04T11:57:57.487Z,38.6
2022-12-04T11:59:13.725Z,36.6
2022-12-04T12:00:28.985Z,37.9
2022-12-04T12:01:45.239Z,38
2022-12-04T12:03:01.458Z,37.9
2022-12-04T12:04:17.710Z,37.4
2022-12-04T12:05:33.946Z,36.4
2022-12-04T12:06:50.184Z,37.2
2022-12-04T12:08:06.440Z,36.7
2022-12-04T12:09:22.666Z,37.8
2022-12-04T12:10:38.905Z,37.2
2022-12-04T12:11:55.139Z,37.6
2022-12-04T12:13:11.387Z,37.2
2022-12-04T12:14:27.622Z,39
2022-12-04T12:15:43.873Z,37.8
2022-12-04T12:16:59.132Z,38.8
2022-12-04T12:18:15.357Z,38
2022-12-04T12:19:31.599Z,38
2022-12-04T12:20:47.843Z,38.7
2022-12-04T12:22:04.087Z,38.7
2022-12-04T12:23:20.316Z,38.3
2022-12-04T12:24:35.578Z,37.3
2022-12-04T12:25:51.824Z,41.2
2022-12-04T12:27:08.063Z,41.6
2022-12-04T12:28:24.297Z,54.6
2022-12-04T12:29:40.551Z,37.9
2022-12-04T12:30:56.783Z,40
2022-12-04T12:32:13.029Z,40.7
2022-12-04T12:33:29.256Z,44.1
2022-12-04T12:34:45.494Z,39.5
2022-12-04T12:36:01.738Z,39.9
2022-12-04T12:37:17.995Z,47.3
2022-12-04T12:38:34.223Z,40.8
2022-12-04T12:39:50.458Z,37.5
2022-12-04T12:41:05.726Z,41.7
2022-12-04T12:42:21.960Z,38.1
2022-12-04T12:43:38.203Z,39.2
2022-12-04T12:44:54.431Z,42.5
2022-12-04T12:46:10.676Z,38.7
2022-12-04T12:47:26.915Z,38.3
2022-12-04T12:48:43.161Z,38.6
2022-12-04T12:49:59.391Z,38.4
2022-12-04T12:51:15.637Z,37.8
2022-12-04T12:52:31.875Z,38
2022-12-04T12:53:48.120Z,37.5
2022-12-04T12:55:04.357Z,37.2
2022-12-04T12:56:20.588Z,36.7
2022-12-04T12:57:35.845Z,39.1
2022-12-04T12:58:52.098Z,37.6
2022-12-04T13:00:08.338Z,38.7
2022-12-04T13:01:24.565Z,36.9
2022-12-04T13:02:40.807Z,38.3
2022-12-04T13:03:57.045Z,37.2
2022-12-04T13:05:13.298Z,37.4
2022-12-04T13:06:29.524Z,35.2
2022-12-04T13:07:45.774Z,37.1
2022-12-04T13:09:02.000Z,38.5
2022-12-04T13:10:18.253Z,38.3
2022-12-04T13:11:34.494Z,37.5
2022-12-04T13:12:50.722Z,37.7
2022-12-04T13:14:05.983Z,37.6
2022-12-04T13:15:22.218Z,39.1
2022-12-04T13:16:38.464Z,36.5
2022-12-04T13:17:54.700Z,35.9
2022-12-04T13:19:10.936Z,37.3
2022-12-04T13:20:27.175Z,36.8
2022-12-04T13:21:43.425Z,35.4
2022-12-04T13:22:59.654Z,36.6
2022-12-04T13:24:15.909Z,37.6
2022-12-04T13:25:32.138Z,37
2022-12-04T13:26:48.389Z,36.8
2022-12-04T13:28:04.000Z,38.9
2022-12-04T13:29:20.856Z,36.5
2022-12-04T13:30:36.125Z,39
2022-12-04T13:31:52.363Z,36
2022-12-04T13:33:08.594Z,37.6
2022-12-04T13:34:24.830Z,38.1
2022-12-04T13:35:41.073Z,36.5
2022-12-04T13:36:57.324Z,37.7
2022-12-04T13:38:13.547Z,37.1
2022-12-04T13:39:29.789Z,38.2
2022-12-04T13:40:46.030Z,38.6
2022-12-04T13:42:02.266Z,39
2022-12-04T13:43:18.513Z,38.2
2022-12-04T13:44:34.749Z,37.8
2022-12-04T13:45:51.005Z,37.3
2022-12-04T13:47:06.251Z,37.9
2022-12-04T13:48:22.484Z,38.8
2022-12-04T13:49:38.725Z,37.4
2022-12-04T13:50:54.980Z,37.8
2022-12-04T13:52:11.208Z,38.8
2022-12-04T13:53:27.445Z,40.2
2022-12-04T13:54:43.686Z,37.4
2022-12-04T13:55:59.937Z,39.3
2022-12-04T13:57:16.175Z,36.7
2022-12-04T13:58:32.409Z,38.2
2022-12-04T13:59:48.644Z,39.6
2022-12-04T14:01:04.900Z,37.4
2022-12-04T14:02:21.128Z,39.4
2022-12-04T14:03:36.380Z,38.6
2022-12-04T14:04:52.614Z,39
2022-12-04T14:06:08.870Z,37.7
2022-12-04T14:07:25.100Z,39.3
2022-12-04T14:08:41.335Z,39.7
2022-12-04T14:09:57.578Z,38.9
2022-12-04T14:11:13.815Z,39.8
2022-12-04T14:12:30.059Z,38
2022-12-04T14:13:46.298Z,38.4
2022-12-04T14:15:02.543Z,39.7
2022-12-04T14:16:18.788Z,38.6
2022-12-04T14:17:35.018Z,37.6
2022-12-04T14:18:51.260Z,41.3
2022-12-04T14:20:06.519Z,55.4
2022-12-04T14:21:22.747Z,44.7
2022-12-04T14:22:39.000Z,39.6
2022-12-04T14:23:55.230Z,41.8
2022-12-04T14:25:11.484Z,39.7
2022-12-04T14:26:27.707Z,41.8
2022-12-04T14:27:43.947Z,38.5
2022-12-04T14:29:00.190Z,40.2
2022-12-04T14:30:16.441Z,42.3
2022-12-04T14:31:32.679Z,39.9
2022-12-04T14:32:48.915Z,39.7
2022-12-04T14:34:05.156Z,39.3
2022-12-04T14:35:21.402Z,39.2
2022-12-04T14:36:36.661Z,38.4
2022-12-04T14:37:52.886Z,37.7
2022-12-04T14:39:09.134Z,39.3
2022-12-04T14:40:25.368Z,39.6
2022-12-04T14:41:41.612Z,38.4
2022-12-04T14:42:57.848Z,38.8
2022-12-04T14:44:14.082Z,39
2022-12-04T14:45:30.323Z,40.7
2022-12-04T14:46:46.568Z,41.9
2022-12-04T14:48:02.800Z,41.9
2022-12-04T14:49:19.059Z,43.9
2022-12-04T14:50:35.296Z,41.8
2022-12-04T14:51:51.533Z,40.3
2022-12-04T14:53:06.779Z,38.9
2022-12-04T14:54:23.029Z,41
2022-12-04T14:55:39.255Z,39.4
2022-12-04T14:56:55.499Z,42
2022-12-04T14:58:11.740Z,40.6
2022-12-04T14:59:27.986Z,40.4
2022-12-04T15:00:44.232Z,40.8
2022-12-04T15:02:00.461Z,41.5
2022-12-04T15:03:16.702Z,40.9
2022-12-04T15:04:32.945Z,43
2022-12-04T15:05:49.185Z,41.8
2022-12-04T15:07:05.420Z,43.1
2022-12-04T15:08:21.655Z,42.6
2022-12-04T15:09:36.981Z,41
2022-12-04T15:10:53.271Z,39.3
2022-12-04T15:12:09.502Z,39.4
2022-12-04T15:13:25.741Z,40.1
2022-12-04T15:14:41.980Z,39.5
2022-12-04T15:15:58.223Z,40.7
2022-12-04T15:17:14.468Z,39.7
2022-12-04T15:18:30.716Z,40
2022-12-04T15:19:46.950Z,40.4
2022-12-04T15:21:03.243Z,39.7
2022-12-04T15:22:19.543Z,37.9
2022-12-04T15:23:35.829Z,38.5
2022-12-04T15:24:52.113Z,39
2022-12-04T15:26:07.422Z,40.7
2022-12-04T15:27:23.726Z,38.1
2022-12-04T15:28:40.018Z,38.1
2022-12-04T15:29:56.318Z,38.5
2022-12-04T15:31:12.613Z,38
2022-12-04T15:32:28.897Z,39
2022-12-04T15:33:45.200Z,37.8
2022-12-04T15:35:01.487Z,38.8
2022-12-04T15:36:17.772Z,37.5
2022-12-04T15:37:34.070Z,38.6
2022-12-04T15:38:50.359Z,39.4
2022-12-04T15:40:06.661Z,38.7
2022-12-04T15:41:22.953Z,39.8
2022-12-04T15:42:38.268Z,38.8
2022-12-04T15:43:54.552Z,39.8
2022-12-04T15:45:10.863Z,38.4
2022-12-04T15:46:27.151Z,37.6
2022-12-04T15:47:43.439Z,38.6
2022-12-04T15:48:59.729Z,37.5
2022-12-04T15:50:16.000Z,38
2022-12-04T15:51:32.323Z,37.1
2022-12-04T15:52:48.613Z,37.8
2022-12-04T15:54:04.907Z,37.7
2022-12-04T15:55:21.203Z,38.7
2022-12-04T15:56:37.497Z,38
2022-12-04T15:57:53.782Z,36.6
2022-12-04T15:59:09.099Z,37.8
2022-12-04T16:00:25.385Z,37.4
2022-12-04T16:01:41.689Z,38.9
2022-12-04T16:02:57.987Z,37.6
2022-12-04T16:04:14.267Z,40.1
2022-12-04T16:05:30.565Z,36.9
2022-12-04T16:06:46.862Z,39
2022-12-04T16:08:03.149Z,38.8
2022-12-04T16:09:19.443Z,38.6
2022-12-04T16:10:35.737Z,40
2022-12-04T16:11:52.029Z,39.8
2022-12-04T16:13:08.331Z,37.7
2022-12-04T16:14:24.632Z,39
2022-12-04T16:15:39.927Z,37.4
2022-12-04T16:16:56.226Z,36.8
2022-12-04T16:18:12.530Z,39.4
2022-12-04T16:19:28.814Z,38.9
2022-12-04T16:20:45.102Z,38.6
2022-12-04T16:22:01.407Z,38.4
2022-12-04T16:23:17.693Z,38.3
2022-12-04T16:24:34.003Z,39
2022-12-04T16:25:50.278Z,39.4
2022-12-04T16:27:06.577Z,38.6
2022-12-04T16:28:22.883Z,37.1
2022-12-04T16:29:39.170Z,38.7
2022-12-04T16:30:55.456Z,37
2022-12-04T16:32:10.760Z,39.5
2022-12-04T16:33:27.069Z,38.5
2022-12-04T16:34:43.354Z,40.2
2022-12-04T16:35:59.645Z,38.6
2022-12-04T16:37:15.937Z,38.7
2022-12-04T16:38:32.234Z,39.1
2022-12-04T16:39:47.545Z,37.1
2022-12-04T16:41:03.846Z,38.8
2022-12-04T16:42:20.147Z,39.3
2022-12-04T16:43:36.440Z,38.6
2022-12-04T16:44:52.725Z,40.7
2022-12-04T16:46:09.017Z,39.5
2022-12-04T16:47:25.318Z,37.7
2022-12-04T16:48:41.603Z,39.5
2022-12-04T16:49:57.912Z,39.4
2022-12-04T16:51:14.201Z,40.6
2022-12-04T16:52:30.482Z,38.5
2022-12-04T16:53:46.776Z,39.2
2022-12-04T16:55:03.089Z,39.4
2022-12-04T16:56:18.399Z,39.3
2022-12-04T16:57:34.691Z,38.8
2022-12-04T16:58:50.975Z,39.7
2022-12-04T17:00:07.266Z,38.2
2022-12-04T17:01:23.558Z,40.1